Time;durP1;ratioP1;P1;durP2;ratioP2;P2;SDS_P1;SDS_P2;PMS_P1;PMS_P2;Temp;Humidity;BMP_temperature;BMP_pressure;BME280_temperature;BME280_humidity;BME280_pressure;Samples;Min_cycle;Max_cycle;Signal;HPM_P1;HPM_P2
2021/03/10 00:00:32;;;;;;;89.97;50.22;;;-1.50;91.00;;;;;;5065654;28;20226;-61
2021/03/10 00:02:59;;;;;;;95.30;51.60;;;-1.50;90.90;;;;;;5069804;28;20402;-61
2021/03/10 00:05:26;;;;;;;98.90;52.55;;;-1.50;91.10;;;;;;5047990;28;20211;-61
2021/03/10 00:07:52;;;;;;;86.10;48.63;;;-1.60;91.10;;;;;;5064832;28;20207;-61
2021/03/10 00:10:19;;;;;;;93.57;49.97;;;-0.60;91.50;;;;;;5065175;28;20240;-61
2021/03/10 00:12:46;;;;;;;88.85;50.17;;;-1.60;91.90;;;;;;5074965;28;20219;-61
2021/03/10 00:15:13;;;;;;;88.70;50.92;;;-1.80;91.60;;;;;;5064834;28;20385;-61
2021/03/10 00:17:43;;;;;;;90.20;50.88;;;-1.80;91.70;;;;;;5064634;28;20207;-61
2021/03/10 00:20:12;;;;;;;90.22;51.35;;;-1.40;91.60;;;;;;5068179;28;20214;-61
2021/03/10 00:22:39;;;;;;;92.82;51.78;;;-1.50;91.10;;;;;;5075981;28;21767;-61
2021/03/10 00:25:07;;;;;;;92.35;50.92;;;-1.40;90.80;;;;;;5062212;28;20211;-61
2021/03/10 00:27:34;;;;;;;95.15;50.35;;;-1.60;90.90;;;;;;5061359;28;20245;-60
2021/03/10 00:30:03;;;;;;;96.55;52.92;;;-1.60;91.10;;;;;;5078489;28;20532;-61
2021/03/10 00:32:30;;;;;;;89.10;49.97;;;-1.60;91.20;;;;;;5079035;28;20211;-61
2021/03/10 00:34:57;;;;;;;91.28;51.75;;;-1.70;91.40;;;;;;5060576;28;20234;-60
2021/03/10 00:37:24;;;;;;;94.80;53.47;;;-1.80;91.60;;;;;;5060623;28;20208;-61
2021/03/10 00:39:51;;;;;;;104.68;53.67;;;-1.70;91.60;;;;;;5077098;28;20207;-61
2021/03/10 00:42:18;;;;;;;111.10;53.95;;;-1.20;92.10;;;;;;5078689;28;20218;-61
2021/03/10 00:44:45;;;;;;;114.78;57.40;;;-1.70;92.00;;;;;;5060088;28;20242;-61
2021/03/10 00:47:13;;;;;;;90.30;53.03;;;-1.50;92.00;;;;;;5078623;28;20210;-61
2021/03/10 00:49:42;;;;;;;111.53;55.38;;;-1.00;92.00;;;;;;5059630;28;20203;-60
2021/03/10 00:52:09;;;;;;;99.00;55.72;;;-0.80;92.00;;;;;;5079165;28;20210;-61
2021/03/10 00:54:36;;;;;;;106.65;57.83;;;-1.80;91.80;;;;;;5077579;28;20195;-61
2021/03/10 00:57:03;;;;;;;106.93;53.65;;;-1.80;92.00;;;;;;5064717;28;20211;-61
2021/03/10 00:59:30;;;;;;;107.13;56.15;;;-1.10;92.40;;;;;;5062598;28;20231;-61
2021/03/10 01:01:56;;;;;;;113.57;56.47;;;-1.80;92.00;;;;;;5074442;28;20635;-61
2021/03/10 01:04:23;;;;;;;113.20;55.40;;;-1.80;92.10;;;;;;5059848;28;20214;-61
2021/03/10 01:06:50;;;;;;;95.10;54.63;;;-1.70;92.10;;;;;;5069685;28;20208;-61
2021/03/10 01:09:18;;;;;;;100.70;57.20;;;-1.90;92.10;;;;;;5069800;28;20278;-61
2021/03/10 01:11:45;;;;;;;105.07;59.40;;;-1.20;92.40;;;;;;5076646;28;20207;-62
2021/03/10 01:14:13;;;;;;;109.95;60.83;;;-1.90;92.40;;;;;;5065108;28;20215;-61
2021/03/10 01:16:40;;;;;;;123.53;64.28;;;-2.10;92.60;;;;;;5077125;28;20237;-61
2021/03/10 01:19:07;;;;;;;116.30;61.05;;;-2.00;92.60;;;;;;5057968;28;20262;-62
2021/03/10 01:21:34;;;;;;;118.70;65.85;;;-1.20;92.90;;;;;;5072316;28;20445;-61
2021/03/10 01:24:01;;;;;;;114.93;64.43;;;-2.00;92.70;;;;;;5078027;28;20471;-61
2021/03/10 01:26:27;;;;;;;119.35;64.60;;;-2.10;92.90;;;;;;5063147;28;20221;-61
2021/03/10 01:28:54;;;;;;;116.88;67.18;;;-0.90;93.60;;;;;;5066263;28;20230;-61
2021/03/10 01:31:20;;;;;;;129.45;70.93;;;-2.20;93.70;;;;;;5073715;28;20207;-61
2021/03/10 01:33:47;;;;;;;137.82;71.82;;;-2.20;93.50;;;;;;5078732;28;20227;-61
2021/03/10 01:36:14;;;;;;;136.18;73.70;;;-2.20;93.20;;;;;;5075152;28;20206;-61
2021/03/10 01:38:40;;;;;;;139.75;72.07;;;-2.30;93.50;;;;;;5075713;28;20223;-61
2021/03/10 01:41:07;;;;;;;136.43;74.28;;;-1.40;93.90;;;;;;5059397;28;20505;-61
2021/03/10 01:43:34;;;;;;;146.00;72.25;;;-2.20;93.80;;;;;;5077795;28;20288;-60
2021/03/10 01:46:00;;;;;;;147.93;74.00;;;-2.40;93.90;;;;;;5076604;28;20195;-61
2021/03/10 01:48:27;;;;;;;146.18;74.07;;;-2.10;93.90;;;;;;5077055;28;20219;-61
2021/03/10 01:50:54;;;;;;;140.95;72.75;;;-2.10;93.70;;;;;;5077189;28;20207;-61
2021/03/10 01:53:22;;;;;;;128.23;73.05;;;-2.30;93.90;;;;;;5071747;28;20203;-61
2021/03/10 01:55:51;;;;;;;130.77;74.03;;;-0.90;94.00;;;;;;5072784;28;20222;-61
2021/03/10 01:58:18;;;;;;;139.52;75.68;;;-2.20;93.90;;;;;;5059321;28;20231;-61
2021/03/10 02:00:44;;;;;;;138.00;74.00;;;-1.40;94.10;;;;;;5072146;28;20212;-61
2021/03/10 02:03:11;;;;;;;132.05;73.80;;;-2.30;93.90;;;;;;5067591;28;20215;-61
2021/03/10 02:05:38;;;;;;;134.27;73.05;;;-2.40;94.10;;;;;;5078774;28;20524;-61
2021/03/10 02:08:23;;;;;;;140.55;75.10;;;-2.00;94.70;;;;;;5077392;28;20215;-60
2021/03/10 02:11:01;;;;;;;133.20;74.50;;;-2.50;94.50;;;;;;5064636;28;20253;-61
2021/03/10 02:13:31;;;;;;;122.57;75.85;;;-2.50;94.60;;;;;;5062440;28;20206;-60
2021/03/10 02:16:13;;;;;;;129.38;74.28;;;-2.70;94.90;;;;;;5070961;28;20215;-61
2021/03/10 02:19:01;;;;;;;134.32;73.25;;;-2.50;94.90;;;;;;5071614;28;20226;-62
2021/03/10 02:21:37;;;;;;;128.43;73.65;;;-2.50;94.60;;;;;;5074983;28;20212;-61
2021/03/10 02:24:38;;;;;;;131.77;73.55;;;-2.50;94.50;;;;;;5075661;28;20210;-61
2021/03/10 02:27:31;;;;;;;120.03;71.13;;;-2.30;94.40;;;;;;5074450;28;20206;-60
2021/03/10 02:30:19;;;;;;;132.85;72.65;;;-2.40;94.30;;;;;;5060891;28;20541;-61
2021/03/10 02:32:55;;;;;;;128.68;73.35;;;-2.50;94.40;;;;;;5075666;28;20521;-60
2021/03/10 02:35:24;;;;;;;121.78;67.70;;;-2.40;94.50;;;;;;5072754;28;20252;-61
2021/03/10 02:37:53;;;;;;;125.35;72.00;;;-1.80;94.70;;;;;;5065440;28;20218;-62
2021/03/10 02:40:23;;;;;;;130.35;73.85;;;-1.80;94.80;;;;;;5073037;28;20203;-60
2021/03/10 02:42:51;;;;;;;129.05;71.95;;;-2.50;94.70;;;;;;5077687;28;20207;-60
2021/03/10 02:45:21;;;;;;;132.98;73.97;;;-2.40;94.60;;;;;;5062202;28;20236;-61
2021/03/10 02:47:49;;;;;;;136.80;74.20;;;-2.60;95.00;;;;;;5069286;28;20289;-60
2021/03/10 02:50:16;;;;;;;134.57;74.82;;;-2.10;95.20;;;;;;5070614;28;20299;-60
2021/03/10 02:52:43;;;;;;;121.28;73.00;;;-2.40;95.10;;;;;;5066972;28;20213;-60
2021/03/10 02:55:10;;;;;;;128.55;72.03;;;-2.30;95.40;;;;;;5071479;28;20207;-59
2021/03/10 02:57:37;;;;;;;128.30;74.88;;;-2.70;95.40;;;;;;5056792;28;20267;-61
2021/03/10 03:00:07;;;;;;;144.40;75.25;;;-2.70;95.60;;;;;;5054457;28;20238;-60
2021/03/10 03:02:35;;;;;;;123.18;69.47;;;-2.70;95.60;;;;;;5050499;28;20223;-59
2021/03/10 03:05:04;;;;;;;136.75;73.35;;;-2.10;95.60;;;;;;5069891;28;20645;-60
2021/03/10 03:07:31;;;;;;;129.82;76.85;;;-2.60;95.10;;;;;;5068777;28;20250;-59
2021/03/10 03:10:00;;;;;;;133.48;72.75;;;-2.70;95.20;;;;;;5069056;28;20207;-59
2021/03/10 03:12:28;;;;;;;129.00;72.72;;;-2.80;95.60;;;;;;5061009;28;20219;-58
2021/03/10 03:14:57;;;;;;;130.13;70.55;;;-1.70;95.80;;;;;;5067523;28;20214;-58
2021/03/10 03:17:25;;;;;;;148.73;77.50;;;-1.50;96.00;;;;;;5070626;28;20211;-58
2021/03/10 03:19:52;;;;;;;125.00;73.03;;;-2.80;95.80;;;;;;5066373;28;20468;-58
2021/03/10 03:22:19;;;;;;;127.63;72.68;;;-2.70;95.70;;;;;;5046573;28;20213;-57
2021/03/10 03:24:49;;;;;;;130.45;71.15;;;-2.60;95.50;;;;;;5071306;28;20227;-57
2021/03/10 03:27:25;;;;;;;134.85;73.22;;;-2.50;95.30;;;;;;5069428;28;20271;-58
2021/03/10 03:29:59;;;;;;;127.88;72.53;;;-2.50;95.10;;;;;;5071059;28;20214;-58
2021/03/10 03:32:34;;;;;;;130.30;75.43;;;-2.50;94.90;;;;;;5067927;28;20214;-55
2021/03/10 03:35:01;;;;;;;127.03;73.28;;;-2.60;95.40;;;;;;5070542;28;20447;-55
2021/03/10 03:37:41;;;;;;;127.43;73.00;;;-2.70;95.50;;;;;;5068671;28;20206;-53
2021/03/10 03:40:09;;;;;;;141.88;77.32;;;-2.70;95.70;;;;;;5075359;28;20242;-55
2021/03/10 03:42:36;;;;;;;127.85;74.53;;;-2.70;95.80;;;;;;5080394;28;20229;-55
2021/03/10 03:45:03;;;;;;;133.55;76.63;;;-3.00;96.00;;;;;;5080599;28;20243;-58
2021/03/10 03:47:30;;;;;;;131.38;75.03;;;-3.00;96.30;;;;;;5073169;28;20203;-53
2021/03/10 03:49:57;;;;;;;147.13;76.20;;;-3.00;96.40;;;;;;5072597;28;20218;-54
2021/03/10 03:52:23;;;;;;;130.45;77.07;;;-1.80;96.80;;;;;;5079093;28;20219;-56
2021/03/10 03:54:50;;;;;;;134.05;78.28;;;-3.00;96.50;;;;;;5080158;28;20493;-57
2021/03/10 03:57:16;;;;;;;135.60;77.03;;;-2.80;96.40;;;;;;5060864;28;20249;-56
2021/03/10 03:59:43;;;;;;;139.90;77.60;;;-2.80;96.30;;;;;;5080604;28;20231;-56
2021/03/10 04:02:10;;;;;;;135.20;74.25;;;-2.50;96.10;;;;;;5071464;28;20211;-56
2021/03/10 04:04:37;;;;;;;136.30;78.25;;;-2.90;96.40;;;;;;5055157;28;20215;-55
2021/03/10 04:07:04;;;;;;;140.27;81.57;;;-2.90;96.40;;;;;;5076421;28;20229;-53
2021/03/10 04:09:31;;;;;;;123.82;76.22;;;-2.80;96.20;;;;;;5066772;28;20215;-51
2021/03/10 04:11:58;;;;;;;138.07;77.75;;;-2.70;95.90;;;;;;5077241;28;20385;-53
2021/03/10 04:14:25;;;;;;;141.63;79.28;;;-2.50;96.10;;;;;;5077952;28;20208;-57
2021/03/10 04:16:51;;;;;;;140.65;80.78;;;-3.00;96.20;;;;;;5079296;28;20221;-57
2021/03/10 04:19:18;;;;;;;130.98;81.80;;;-2.90;96.30;;;;;;5077334;28;20231;-55
2021/03/10 04:21:45;;;;;;;134.15;79.72;;;-2.40;96.90;;;;;;5078430;28;20203;-54
2021/03/10 04:24:11;;;;;;;142.85;77.32;;;-1.90;97.20;;;;;;5077572;28;20211;-53
2021/03/10 04:26:38;;;;;;;145.25;80.20;;;-3.00;96.70;;;;;;5077632;28;20207;-54
2021/03/10 04:29:05;;;;;;;135.48;79.25;;;-3.20;97.00;;;;;;5077111;28;20528;-51
2021/03/10 04:31:31;;;;;;;139.82;82.35;;;-2.20;97.40;;;;;;5077074;28;20225;-56
2021/03/10 04:33:58;;;;;;;136.90;87.32;;;-3.10;97.20;;;;;;5079324;28;20294;-55
2021/03/10 04:36:25;;;;;;;151.52;82.75;;;-3.20;97.20;;;;;;5074337;28;20539;-57
2021/03/10 04:38:51;;;;;;;136.35;85.82;;;-3.20;97.10;;;;;;5077314;28;20230;-57
2021/03/10 04:41:18;;;;;;;141.20;81.70;;;-2.40;97.60;;;;;;5078578;28;20214;-55
2021/03/10 04:43:44;;;;;;;156.05;84.45;;;-3.20;97.40;;;;;;5078505;28;20305;-56
2021/03/10 04:46:11;;;;;;;148.63;82.85;;;-3.10;97.30;;;;;;5077396;28;20211;-51
2021/03/10 04:48:38;;;;;;;150.40;85.47;;;-3.00;97.00;;;;;;5077510;28;20211;-52
2021/03/10 04:51:05;;;;;;;142.73;85.85;;;-2.90;97.00;;;;;;5078535;28;20207;-54
2021/03/10 04:53:31;;;;;;;144.30;90.30;;;-3.10;97.10;;;;;;5078492;28;20673;-54
2021/03/10 04:55:58;;;;;;;137.18;82.20;;;-3.00;97.20;;;;;;5075980;28;20203;-55
2021/03/10 04:58:24;;;;;;;152.68;87.50;;;-3.10;97.30;;;;;;5078283;28;20257;-53
2021/03/10 05:00:51;;;;;;;148.95;84.35;;;-3.10;97.30;;;;;;5078397;28;20813;-54
2021/03/10 05:03:17;;;;;;;150.98;87.40;;;-1.90;97.70;;;;;;5077907;28;20207;-55
2021/03/10 05:05:44;;;;;;;147.23;85.07;;;-3.10;97.30;;;;;;5061122;28;20383;-54
2021/03/10 05:08:11;;;;;;;151.68;87.53;;;-3.30;97.60;;;;;;5070196;28;20206;-54
2021/03/10 05:10:38;;;;;;;150.55;87.32;;;-3.10;97.90;;;;;;5060875;28;20212;-53
2021/03/10 05:13:05;;;;;;;155.52;86.15;;;-3.10;97.70;;;;;;5054992;28;20203;-54
2021/03/10 05:15:31;;;;;;;151.80;89.35;;;-2.70;97.70;;;;;;5059609;28;20397;-54
2021/03/10 05:17:58;;;;;;;153.20;88.68;;;-3.10;97.60;;;;;;5072970;28;20575;-53
2021/03/10 05:20:25;;;;;;;150.90;87.68;;;-2.90;97.10;;;;;;5070307;28;20251;-56
2021/03/10 05:22:51;;;;;;;158.68;86.07;;;-2.90;97.30;;;;;;5061423;28;20202;-51
2021/03/10 05:25:18;;;;;;;142.27;86.72;;;-2.90;97.00;;;;;;5068280;28;20550;-53
2021/03/10 05:27:44;;;;;;;154.27;88.30;;;-3.00;97.30;;;;;;5063400;28;20219;-55
2021/03/10 05:30:12;;;;;;;164.63;88.90;;;-3.10;97.70;;;;;;5058868;28;20203;-53
2021/03/10 05:32:38;;;;;;;156.95;91.43;;;-3.00;97.70;;;;;;5058490;28;20249;-54
2021/03/10 05:35:06;;;;;;;151.02;90.90;;;-3.00;97.70;;;;;;5058592;28;20239;-51
2021/03/10 05:37:37;;;;;;;145.32;90.78;;;-3.10;97.80;;;;;;5059601;28;20212;-55
2021/03/10 05:40:04;;;;;;;146.73;88.53;;;-3.00;98.20;;;;;;5072368;28;20282;-57
2021/03/10 05:42:31;;;;;;;150.77;85.40;;;-3.10;98.20;;;;;;5047023;28;20298;-55
2021/03/10 05:44:57;;;;;;;158.20;89.35;;;-2.90;98.20;;;;;;5064609;28;20238;-56
2021/03/10 05:47:24;;;;;;;142.50;85.85;;;-2.80;97.90;;;;;;5056524;28;20245;-55
2021/03/10 05:49:51;;;;;;;153.07;83.18;;;-2.50;97.90;;;;;;5072611;28;20274;-53
2021/03/10 05:52:18;;;;;;;146.85;85.28;;;-1.50;98.10;;;;;;5068615;28;20422;-54
2021/03/10 05:54:48;;;;;;;149.43;85.28;;;-1.70;98.00;;;;;;5071816;28;20207;-52
2021/03/10 05:57:15;;;;;;;158.80;85.20;;;-2.60;97.50;;;;;;5068580;28;20207;-55
2021/03/10 05:59:41;;;;;;;147.38;84.63;;;-2.50;97.50;;;;;;5051565;28;20780;-55
2021/03/10 06:02:08;;;;;;;147.43;84.47;;;-2.40;97.30;;;;;;5075026;28;20215;-55
2021/03/10 06:04:42;;;;;;;158.20;80.97;;;-2.30;97.00;;;;;;5067104;28;20203;-53
2021/03/10 06:07:22;;;;;;;147.38;80.80;;;-2.40;97.10;;;;;;5071524;28;20211;-53
2021/03/10 06:10:04;;;;;;;145.50;84.50;;;-2.30;96.90;;;;;;5066703;28;20211;-54
2021/03/10 06:12:45;;;;;;;145.55;81.88;;;-2.40;96.90;;;;;;5074549;28;20207;-57
2021/03/10 06:15:13;;;;;;;145.90;80.90;;;-2.50;97.20;;;;;;5058035;28;20213;-56
2021/03/10 06:17:41;;;;;;;133.18;79.63;;;-2.40;97.10;;;;;;5059944;28;20732;-55
2021/03/10 06:20:09;;;;;;;144.45;79.72;;;-2.20;96.80;;;;;;5058745;28;20749;-56
2021/03/10 06:22:36;;;;;;;146.68;76.53;;;-2.20;97.10;;;;;;5058876;28;20207;-56
2021/03/10 06:25:03;;;;;;;148.57;75.47;;;-2.10;96.80;;;;;;5057437;28;20195;-55
2021/03/10 06:27:33;;;;;;;128.90;69.45;;;-1.80;97.20;;;;;;5058285;28;20208;-56
2021/03/10 06:30:00;;;;;;;122.05;64.25;;;-0.90;96.30;;;;;;5058903;28;20207;-54
2021/03/10 06:32:28;;;;;;;113.18;58.53;;;0.30;93.90;;;;;;5069061;28;20219;-53
2021/03/10 06:34:55;;;;;;;123.22;63.45;;;1.20;91.90;;;;;;5072728;28;20222;-55
2021/03/10 06:37:29;;;;;;;116.20;69.05;;;2.40;89.60;;;;;;5076303;28;20219;-54
2021/03/10 06:40:10;;;;;;;107.55;60.95;;;3.00;85.70;;;;;;5073012;28;20566;-55
2021/03/10 06:42:37;;;;;;;119.15;62.28;;;3.70;84.10;;;;;;5064696;28;20439;-54
2021/03/10 06:45:05;;;;;;;116.15;62.10;;;4.10;79.20;;;;;;5053248;28;20287;-56
2021/03/10 06:47:40;;;;;;;112.55;62.35;;;4.10;79.00;;;;;;5066546;28;20204;-56
2021/03/10 06:50:10;;;;;;;110.32;61.75;;;4.50;77.90;;;;;;5072099;28;20243;-55
2021/03/10 06:52:41;;;;;;;114.35;67.55;;;4.40;76.50;;;;;;5070684;28;20249;-56
2021/03/10 06:55:08;;;;;;;117.80;65.05;;;4.60;76.80;;;;;;5045462;28;20226;-55
2021/03/10 06:57:44;;;;;;;112.47;64.10;;;4.10;76.40;;;;;;5057281;28;20224;-57
2021/03/10 07:00:24;;;;;;;113.22;64.68;;;4.10;76.60;;;;;;5063420;28;20252;-54
2021/03/10 07:02:52;;;;;;;114.05;62.38;;;4.60;76.20;;;;;;5075627;28;20203;-56
2021/03/10 07:05:19;;;;;;;118.32;67.13;;;4.70;74.50;;;;;;5071600;28;20280;-57
2021/03/10 07:07:47;;;;;;;103.07;65.03;;;5.40;71.90;;;;;;5065757;28;20245;-56
2021/03/10 07:10:20;;;;;;;113.78;65.35;;;6.00;69.50;;;;;;5041603;28;20305;-57
2021/03/10 07:12:47;;;;;;;122.45;69.28;;;7.40;64.50;;;;;;5061828;28;20506;-58
2021/03/10 07:15:15;;;;;;;104.07;66.15;;;7.90;60.50;;;;;;5068692;28;20213;-57
2021/03/10 07:17:45;;;;;;;117.82;69.80;;;8.40;59.70;;;;;;5069584;28;20516;-59
2021/03/10 07:20:13;;;;;;;123.45;72.35;;;8.90;57.50;;;;;;5076201;28;20246;-58
2021/03/10 07:22:42;;;;;;;118.20;66.05;;;9.60;55.40;;;;;;5076478;28;20211;-59
2021/03/10 07:25:14;;;;;;;105.05;63.55;;;9.90;54.20;;;;;;5076283;28;20208;-57
2021/03/10 07:27:56;;;;;;;110.85;64.32;;;10.10;53.10;;;;;;5075646;28;20214;-58
2021/03/10 07:30:45;;;;;;;111.05;60.35;;;10.30;52.30;;;;;;5075858;28;20222;-59
2021/03/10 07:33:20;;;;;;;116.05;67.53;;;12.30;48.70;;;;;;5073858;28;20270;-60
2021/03/10 07:36:00;;;;;;;101.15;66.82;;;13.10;44.60;;;;;;5074925;28;20229;-60
2021/03/10 07:38:36;;;;;;;114.32;69.35;;;12.40;45.50;;;;;;5074382;28;20228;-60
2021/03/10 07:41:10;;;;;;;105.75;66.07;;;12.50;45.30;;;;;;5067990;28;20220;-62
2021/03/10 07:43:48;;;;;;;110.05;66.05;;;13.00;44.10;;;;;;5071392;28;20242;-60
2021/03/10 07:46:27;;;;;;;96.30;64.63;;;13.40;42.90;;;;;;5075643;28;20210;-62
2021/03/10 07:48:56;;;;;;;99.65;64.28;;;14.50;40.80;;;;;;5057536;28;20214;-62
2021/03/10 07:51:36;;;;;;;104.53;65.00;;;11.90;45.10;;;;;;5066989;28;20253;-61
2021/03/10 07:54:19;;;;;;;90.35;60.95;;;12.70;43.30;;;;;;5074488;28;20653;-61
2021/03/10 07:56:46;;;;;;;94.30;59.28;;;13.90;41.30;;;;;;5075537;28;20203;-60
2021/03/10 07:59:20;;;;;;;90.75;63.10;;;14.40;40.00;;;;;;5057301;28;20242;-60
2021/03/10 08:01:47;;;;;;;97.45;64.18;;;14.60;39.20;;;;;;5074924;28;20202;-60
2021/03/10 08:04:17;;;;;;;96.32;60.30;;;15.10;38.30;;;;;;5075035;28;20196;-59
2021/03/10 08:06:55;;;;;;;90.50;62.42;;;16.60;36.20;;;;;;5068049;28;20217;-60
2021/03/10 08:09:26;;;;;;;85.60;58.07;;;16.30;35.00;;;;;;5071434;28;20399;-59
2021/03/10 08:12:05;;;;;;;88.03;56.95;;;15.00;36.50;;;;;;5070280;28;20479;-61
2021/03/10 08:14:43;;;;;;;90.10;61.20;;;15.80;36.80;;;;;;5077683;28;20515;-61
2021/03/10 08:17:21;;;;;;;80.87;54.97;;;17.10;34.70;;;;;;5058439;28;20787;-62
2021/03/10 08:19:51;;;;;;;81.37;54.87;;;18.20;32.60;;;;;;5072922;28;21038;-61
2021/03/10 08:22:20;;;;;;;76.40;56.23;;;18.80;31.30;;;;;;5076789;28;20608;-61
2021/03/10 08:24:48;;;;;;;81.17;57.37;;;19.00;29.90;;;;;;5059165;28;20500;-61
2021/03/10 08:27:14;;;;;;;92.77;63.07;;;19.10;29.60;;;;;;5068005;28;20422;-60
2021/03/10 08:29:48;;;;;;;90.67;60.97;;;17.80;29.90;;;;;;5075323;28;20452;-59
2021/03/10 08:32:28;;;;;;;84.13;59.00;;;17.80;31.50;;;;;;5059490;28;20445;-60
2021/03/10 08:34:59;;;;;;;103.97;75.87;;;19.00;30.00;;;;;;5073976;28;21065;-62
2021/03/10 08:37:27;;;;;;;155.20;96.67;;;18.40;30.00;;;;;;5076908;28;20823;-60
2021/03/10 08:39:54;;;;;;;124.67;79.87;;;18.70;29.70;;;;;;5076658;28;20510;-60
2021/03/10 08:42:22;;;;;;;80.33;57.80;;;18.10;30.40;;;;;;5077977;28;20646;-60
2021/03/10 08:44:53;;;;;;;89.87;55.90;;;18.30;30.00;;;;;;5073772;28;20510;-60
2021/03/10 08:47:25;;;;;;;74.10;54.80;;;18.20;29.90;;;;;;5074680;28;20804;-60
2021/03/10 08:49:57;;;;;;;84.83;57.47;;;17.70;30.60;;;;;;5076201;28;20439;-60
2021/03/10 08:52:26;;;;;;;87.00;54.73;;;17.70;30.70;;;;;;5075885;28;20418;-61
2021/03/10 08:54:54;;;;;;;80.70;54.70;;;18.40;30.00;;;;;;5077917;28;20427;-61
2021/03/10 08:57:39;;;;;;;91.20;59.50;;;18.10;29.50;;;;;;5077865;28;20442;-61
2021/03/10 09:00:15;;;;;;;91.00;63.20;;;18.70;29.60;;;;;;5077136;28;20476;-60
2021/03/10 09:02:42;;;;;;;80.30;59.53;;;19.00;29.80;;;;;;5070965;28;20440;-61
2021/03/10 09:05:12;;;;;;;84.77;56.93;;;18.60;29.20;;;;;;5076605;28;20512;-61
2021/03/10 09:07:38;;;;;;;77.93;55.43;;;17.30;30.70;;;;;;5075474;28;20454;-61
2021/03/10 09:10:14;;;;;;;76.80;53.43;;;17.40;31.00;;;;;;5075359;28;20422;-62
2021/03/10 09:12:43;;;;;;;75.60;53.17;;;17.40;31.20;;;;;;5072493;28;20424;-62
2021/03/10 09:15:12;;;;;;;72.90;51.40;;;16.10;32.10;;;;;;5077877;28;20444;-61
2021/03/10 09:17:40;;;;;;;53.47;39.00;;;16.20;32.70;;;;;;5072611;28;20467;-61
2021/03/10 09:20:20;;;;;;;48.03;35.27;;;15.70;31.60;;;;;;5068137;28;20244;-61
2021/03/10 09:22:47;;;;;;;45.70;32.63;;;15.10;31.20;;;;;;5049782;28;20506;-60
2021/03/10 09:25:16;;;;;;;62.97;35.63;;;14.10;32.40;;;;;;5065268;28;20439;-62
2021/03/10 09:27:44;;;;;;;42.85;31.38;;;14.10;33.50;;;;;;5068294;28;20202;-61
2021/03/10 09:30:26;;;;;;;47.38;32.17;;;14.80;33.40;;;;;;5064681;28;20231;-62
2021/03/10 09:32:52;;;;;;;35.25;25.60;;;15.00;32.10;;;;;;5068793;28;20202;-62
2021/03/10 09:35:22;;;;;;;36.42;27.02;;;12.90;32.60;;;;;;5074615;28;20536;-62
2021/03/10 09:37:52;;;;;;;39.30;25.92;;;10.40;36.20;;;;;;5056874;28;20210;-61
2021/03/10 09:40:32;;;;;;;43.42;28.83;;;9.30;39.90;;;;;;5077185;28;20230;-61
2021/03/10 09:43:04;;;;;;;47.05;31.92;;;8.80;43.60;;;;;;5076369;28;20263;-61
2021/03/10 09:45:34;;;;;;;37.78;27.70;;;8.70;44.70;;;;;;5072864;28;20225;-62
2021/03/10 09:48:42;;;;;;;39.35;28.38;;;8.80;42.40;;;;;;5076025;28;20259;-61
2021/03/10 09:51:19;;;;;;;39.35;25.08;;;7.90;43.10;;;;;;5075106;28;20204;-62
2021/03/10 09:53:50;;;;;;;39.80;25.58;;;8.20;44.10;;;;;;5077350;28;20426;-61
2021/03/10 09:56:22;;;;;;;40.58;25.00;;;7.20;44.40;;;;;;5075151;28;20267;-62
2021/03/10 09:58:57;;;;;;;33.65;23.88;;;7.80;45.10;;;;;;5057891;28;20258;-62
2021/03/10 10:01:25;;;;;;;34.63;22.88;;;7.60;44.90;;;;;;5072630;28;20204;-61
2021/03/10 10:03:53;;;;;;;37.33;23.50;;;7.30;44.80;;;;;;5074850;28;20229;-61
2021/03/10 10:06:20;;;;;;;38.03;23.60;;;6.80;46.30;;;;;;5074898;28;20276;-61
2021/03/10 10:08:48;;;;;;;28.90;19.80;;;6.80;46.90;;;;;;5074277;28;20277;-61
2021/03/10 10:11:16;;;;;;;27.88;19.48;;;6.80;46.10;;;;;;5073997;28;20206;-62
2021/03/10 10:13:48;;;;;;;28.30;18.75;;;6.90;46.10;;;;;;5075366;28;20285;-62
2021/03/10 10:16:15;;;;;;;23.75;17.33;;;6.80;45.80;;;;;;5073759;28;20397;-62
2021/03/10 10:18:43;;;;;;;28.83;17.48;;;6.50;45.50;;;;;;5075589;28;20520;-61
2021/03/10 10:21:10;;;;;;;29.77;17.08;;;6.30;46.40;;;;;;5070934;28;20211;-61
2021/03/10 10:23:37;;;;;;;25.90;17.58;;;6.20;45.90;;;;;;5073334;28;20194;-61
2021/03/10 10:26:04;;;;;;;26.92;18.65;;;6.20;46.20;;;;;;5073821;28;20270;-62
2021/03/10 10:28:30;;;;;;;28.92;18.35;;;6.20;46.80;;;;;;5075588;28;20230;-61
2021/03/10 10:30:59;;;;;;;27.67;17.95;;;6.10;47.60;;;;;;5070754;28;20195;-61
2021/03/10 10:33:30;;;;;;;21.42;15.13;;;6.20;47.50;;;;;;5047630;28;20271;-63
2021/03/10 10:35:57;;;;;;;18.23;13.25;;;6.10;46.40;;;;;;5058639;28;20208;-63
2021/03/10 10:38:24;;;;;;;24.90;15.02;;;6.00;45.50;;;;;;5073957;28;20207;-63
2021/03/10 10:40:51;;;;;;;20.42;14.18;;;6.00;45.40;;;;;;5073348;28;20327;-62
2021/03/10 10:43:17;;;;;;;18.00;13.82;;;6.10;46.50;;;;;;5057859;28;20207;-62
2021/03/10 10:45:44;;;;;;;19.27;13.85;;;6.20;45.70;;;;;;5073703;28;20520;-62
2021/03/10 10:48:11;;;;;;;22.70;16.02;;;6.40;45.90;;;;;;5075883;28;20210;-61
2021/03/10 10:50:38;;;;;;;23.88;14.88;;;6.50;44.90;;;;;;5073938;28;20210;-62
2021/03/10 10:53:05;;;;;;;16.77;13.60;;;6.40;45.20;;;;;;5075045;28;20206;-61
2021/03/10 10:55:32;;;;;;;18.88;12.30;;;6.30;44.70;;;;;;5076024;28;20198;-63
2021/03/10 10:57:59;;;;;;;16.52;11.95;;;6.20;44.30;;;;;;5075282;28;20838;-63
2021/03/10 11:00:27;;;;;;;20.40;12.38;;;6.20;44.20;;;;;;5074867;28;20234;-62
2021/03/10 11:02:55;;;;;;;21.13;12.80;;;6.20;43.60;;;;;;5073442;28;20265;-61
2021/03/10 11:05:22;;;;;;;19.10;11.93;;;6.30;43.80;;;;;;5067836;28;20210;-61
2021/03/10 11:07:49;;;;;;;18.73;12.50;;;6.10;42.80;;;;;;5072962;28;20234;-63
2021/03/10 11:10:16;;;;;;;17.75;13.25;;;6.10;43.00;;;;;;5073505;28;20211;-62
2021/03/10 11:12:43;;;;;;;19.15;13.52;;;6.00;43.10;;;;;;5065310;28;20257;-62
2021/03/10 11:15:10;;;;;;;16.35;12.57;;;5.90;44.00;;;;;;5067091;28;20274;-62
2021/03/10 11:17:37;;;;;;;19.30;13.90;;;5.80;44.70;;;;;;5066552;28;20249;-63
2021/03/10 11:20:08;;;;;;;21.30;12.88;;;5.50;45.30;;;;;;5065404;28;20234;-63
2021/03/10 11:22:37;;;;;;;20.20;13.27;;;5.40;45.20;;;;;;5068692;28;20278;-62
2021/03/10 11:25:14;;;;;;;18.60;12.20;;;5.40;45.00;;;;;;5060258;28;20210;-61
2021/03/10 11:27:41;;;;;;;18.55;12.98;;;5.40;44.80;;;;;;5072749;28;20206;-62
2021/03/10 11:30:11;;;;;;;21.02;12.00;;;5.60;45.10;;;;;;5068497;28;20262;-62
2021/03/10 11:32:41;;;;;;;21.08;12.93;;;5.60;44.80;;;;;;5064215;28;20209;-61
2021/03/10 11:35:14;;;;;;;19.80;12.65;;;5.70;44.80;;;;;;5053273;28;20432;-61
2021/03/10 11:37:46;;;;;;;17.10;12.45;;;5.70;45.70;;;;;;5075066;28;20211;-62
2021/03/10 11:40:13;;;;;;;21.38;12.52;;;5.70;44.90;;;;;;5068107;28;20234;-62
2021/03/10 11:42:40;;;;;;;17.80;12.13;;;5.90;44.30;;;;;;5062017;28;20384;-62
2021/03/10 11:45:09;;;;;;;18.33;12.73;;;5.90;43.90;;;;;;5068740;28;20235;-64
2021/03/10 11:47:35;;;;;;;20.25;13.27;;;5.70;44.60;;;;;;5070832;28;20203;-62
2021/03/10 11:50:04;;;;;;;14.65;11.48;;;5.70;44.70;;;;;;5073590;28;20210;-62
2021/03/10 11:52:31;;;;;;;16.17;12.60;;;5.90;45.50;;;;;;5077562;28;20198;-62
2021/03/10 11:54:58;;;;;;;20.75;14.27;;;6.10;45.50;;;;;;5073412;28;20203;-62
2021/03/10 11:57:25;;;;;;;17.58;12.93;;;6.20;43.90;;;;;;5072827;28;20274;-62
2021/03/10 11:59:51;;;;;;;20.13;12.75;;;6.10;43.40;;;;;;5077866;28;20222;-63
2021/03/10 12:02:18;;;;;;;16.52;13.32;;;6.00;43.50;;;;;;5064092;28;20209;-62
2021/03/10 12:04:45;;;;;;;20.67;14.30;;;5.90;44.50;;;;;;5077713;28;20207;-63
2021/03/10 12:07:12;;;;;;;20.42;12.90;;;5.80;44.40;;;;;;5075611;28;20694;-63
2021/03/10 12:09:39;;;;;;;17.27;12.88;;;5.90;44.00;;;;;;5076765;28;20217;-63
2021/03/10 12:12:06;;;;;;;27.67;14.30;;;5.70;44.00;;;;;;5060532;28;20252;-64
2021/03/10 12:14:34;;;;;;;16.70;12.45;;;5.70;44.70;;;;;;5077450;28;20261;-62
2021/03/10 12:17:01;;;;;;;14.98;11.70;;;5.90;43.70;;;;;;5061207;28;20401;-63
2021/03/10 12:19:28;;;;;;;17.75;12.60;;;6.10;43.80;;;;;;5073712;28;20224;-62
2021/03/10 12:21:54;;;;;;;26.08;14.50;;;6.30;43.60;;;;;;5065094;28;20207;-63
2021/03/10 12:24:21;;;;;;;15.25;11.00;;;6.40;44.10;;;;;;5065837;28;20203;-64
2021/03/10 12:26:47;;;;;;;19.33;12.13;;;6.50;43.10;;;;;;5051747;28;20221;-62
2021/03/10 12:29:15;;;;;;;17.67;13.18;;;6.40;44.30;;;;;;5066319;28;20215;-62
2021/03/10 12:31:41;;;;;;;20.05;14.00;;;6.30;43.90;;;;;;5070637;28;20214;-63
2021/03/10 12:34:09;;;;;;;22.23;13.82;;;6.30;43.60;;;;;;5078255;28;20230;-63
2021/03/10 12:36:35;;;;;;;16.95;12.48;;;6.30;45.00;;;;;;5064074;28;20540;-63